createdAt,value
2023-01-13T05:08:15.832Z,97154.75
2023-01-13T05:10:18.985Z,97155.38
2023-01-13T05:12:39.397Z,97152.66
2023-01-13T05:14:59.381Z,97158.09
2023-01-13T05:17:02.475Z,97158.44
2023-01-13T05:19:05.135Z,97161.00
2023-01-13T05:21:28.567Z,97152.31
2023-01-13T05:23:49.875Z,97153.44
2023-01-13T05:25:51.913Z,97168.53
2023-01-13T05:27:56.352Z,97163.53
2023-01-13T05:29:59.274Z,97167.44
2023-01-13T05:32:02.624Z,97171.19
2023-01-13T05:34:05.417Z,97160.22
2023-01-13T05:36:09.035Z,97149.47
2023-01-13T05:38:12.675Z,97146.81
2023-01-13T05:40:39.600Z,97145.81
2023-01-13T05:42:59.946Z,97147.25
2023-01-13T05:45:02.715Z,97143.78
2023-01-13T05:47:05.864Z,97146.44
2023-01-13T05:49:11.364Z,97149.72
2023-01-13T05:51:14.818Z,97144.41
2023-01-13T05:53:18.648Z,97150.56
2023-01-13T05:55:22.732Z,97149.34
2023-01-13T05:57:26.385Z,97151.00
2023-01-13T05:59:29.063Z,97151.19
2023-01-13T06:01:32.043Z,97145.63
2023-01-13T06:03:35.592Z,97153.38
2023-01-13T06:05:38.793Z,97145.28
2023-01-13T06:07:42.057Z,97153.00
2023-01-13T06:09:44.670Z,97141.63
2023-01-13T06:11:48.741Z,97133.50
2023-01-13T06:13:51.348Z,97137.78
2023-01-13T06:15:57.563Z,97147.25
2023-01-13T06:18:02.703Z,97144.41
2023-01-13T06:20:08.184Z,97133.41
2023-01-13T06:22:14.533Z,97136.44
2023-01-13T06:24:17.369Z,97130.50
2023-01-13T06:26:22.115Z,97135.59
2023-01-13T06:28:26.109Z,97132.59
2023-01-13T06:30:31.867Z,97136.25
2023-01-13T06:32:39.698Z,97136.03
2023-01-13T06:34:45.350Z,97129.94
2023-01-13T06:36:53.262Z,97139.06
2023-01-13T06:39:00.706Z,97148.19
2023-01-13T06:41:03.714Z,97144.09
2023-01-13T06:43:17.780Z,97144.94
2023-01-13T06:45:22.790Z,97136.00
2023-01-13T06:47:25.509Z,97163.06
2023-01-13T06:49:28.243Z,97164.06
2023-01-13T06:51:30.881Z,97159.59
2023-01-13T06:53:33.582Z,97166.09
2023-01-13T06:55:36.427Z,97169.06
2023-01-13T06:57:49.175Z,97163.16
2023-01-13T06:59:51.993Z,97167.00
2023-01-13T07:01:56.226Z,97174.31
2023-01-13T07:03:59.123Z,97173.47
2023-01-13T07:06:02.179Z,97175.94
2023-01-13T07:08:05.592Z,97180.41
2023-01-13T07:10:11.253Z,97192.63
2023-01-13T07:12:13.912Z,97196.91
2023-01-13T07:14:33.416Z,97197.09
2023-01-13T07:16:36.131Z,97196.28
2023-01-13T07:18:40.616Z,97211.13
2023-01-13T07:20:43.332Z,97205.28
2023-01-13T07:22:46.343Z,97213.78
2023-01-13T07:24:49.077Z,97211.31
2023-01-13T07:26:52.301Z,97215.41
2023-01-13T07:28:55.068Z,97223.34
2023-01-13T07:30:58.608Z,97217.06
2023-01-13T07:33:01.355Z,97211.38
2023-01-13T07:35:06.384Z,97221.97
2023-01-13T07:37:09.150Z,97208.56
2023-01-13T07:39:11.927Z,97216.34
2023-01-13T07:41:33.342Z,97221.78
2023-01-13T07:43:36.097Z,97217.31
2023-01-13T07:45:39.712Z,97224.06
2023-01-13T07:47:42.417Z,97231.81
2023-01-13T07:49:45.087Z,97221.44
2023-01-13T07:51:49.205Z,97223.25
2023-01-13T07:53:52.037Z,97229.19
2023-01-13T07:55:57.386Z,97242.41
2023-01-13T07:58:00.198Z,97236.75
2023-01-13T08:00:03.703Z,97240.38
2023-01-13T08:02:06.641Z,97245.03
2023-01-13T08:04:09.998Z,97234.47
2023-01-13T08:06:13.592Z,97234.66
2023-01-13T08:08:18.147Z,97229.56
2023-01-13T08:10:20.929Z,97233.84
2023-01-13T08:12:40.935Z,97238.75
2023-01-13T08:14:55.999Z,97248.31
2023-01-13T08:16:58.965Z,97248.31
2023-01-13T08:19:04.113Z,97249.78
2023-01-13T08:21:09.073Z,97245.31
2023-01-13T08:23:11.876Z,97242.03
2023-01-13T08:25:16.129Z,97242.66
2023-01-13T08:27:20.186Z,97244.09
2023-01-13T08:29:23.076Z,97231.69
2023-01-13T08:31:25.859Z,97230.88
2023-01-13T08:33:29.080Z,97248.25
2023-01-13T08:35:31.886Z,97246.59
2023-01-13T08:37:34.533Z,97249.41
2023-01-13T08:39:37.419Z,97265.75
2023-01-13T08:41:56.759Z,97261.09
2023-01-13T08:43:59.479Z,97262.53
2023-01-13T08:46:06.783Z,97267.63
2023-01-13T08:48:09.804Z,97275.38
2023-01-13T08:50:13.171Z,97276.06
2023-01-13T08:52:16.235Z,97286.63
2023-01-13T08:54:19.610Z,97278.41
2023-01-13T08:56:22.425Z,97288.16
2023-01-13T08:58:26.737Z,97297.94
2023-01-13T09:00:29.518Z,97301.78
2023-01-13T09:02:32.341Z,97313.81
2023-01-13T09:04:35.650Z,97303.03
2023-01-13T09:06:38.330Z,97312.44
2023-01-13T09:08:41.125Z,97305.16
2023-01-13T09:10:46.068Z,97309.25
2023-01-13T09:13:06.155Z,97316.19
2023-01-13T09:15:11.207Z,97319.28
2023-01-13T09:17:14.715Z,97324.75
2023-01-13T09:19:17.688Z,97318.72
2023-01-13T09:21:21.043Z,97328.78
2023-01-13T09:23:23.855Z,97320.28
2023-01-13T09:25:26.692Z,97327.03
2023-01-13T09:27:29.548Z,97319.56
2023-01-13T09:29:32.557Z,97325.09
2023-01-13T09:31:36.865Z,97325.09
2023-01-13T09:33:57.211Z,97311.06
2023-01-13T09:36:01.127Z,97303.56
2023-01-13T09:38:03.891Z,97302.03
2023-01-13T09:40:10.407Z,97320.78
2023-01-13T09:42:38.014Z,97310.69
2023-01-13T09:44:46.627Z,97317.44
2023-01-13T09:46:54.375Z,97328.66
2023-01-13T09:48:58.840Z,97319.44
2023-01-13T09:51:06.860Z,97326.56
2023-01-13T09:53:16.184Z,97337.97
2023-01-13T09:55:24.392Z,97331.84
2023-01-13T09:57:30.129Z,97333.22
2023-01-13T09:59:36.339Z,97329.75
2023-01-13T10:01:47.450Z,97318.34
2023-01-13T10:03:51.935Z,97310.50
2023-01-13T10:05:59.651Z,97317.44
2023-01-13T10:08:09.870Z,97313.38
2023-01-13T10:10:19.087Z,97317.34
2023-01-13T10:12:43.616Z,97310.03
2023-01-13T10:14:52.927Z,97323.06
2023-01-13T10:17:11.744Z,97314.94
2023-01-13T10:19:22.815Z,97323.50
2023-01-13T10:21:44.459Z,97311.28
2023-01-13T10:23:57.724Z,97322.06
2023-01-13T10:26:13.021Z,97316.75
2023-01-13T10:28:20.710Z,97304.34
2023-01-13T10:30:32.388Z,97303.59
2023-01-13T10:32:35.205Z,97298.38
2023-01-13T10:34:49.510Z,97313.06
2023-01-13T10:37:04.070Z,97311.22
2023-01-13T10:39:10.985Z,97302.47
2023-01-13T10:41:20.753Z,97294.34
2023-01-13T10:43:26.778Z,97303.94
2023-01-13T10:45:29.508Z,97304.13
2023-01-13T10:47:35.503Z,97303.66
2023-01-13T10:49:39.193Z,97307.50
2023-01-13T10:51:45.773Z,97301.66
2023-01-13T10:53:53.949Z,97297.44
2023-01-13T10:56:01.698Z,97282.19
2023-01-13T10:58:13.444Z,97278.50
2023-01-13T11:00:28.205Z,97276.50
2023-01-13T11:02:32.443Z,97269.56
2023-01-13T11:04:37.731Z,97270.19
2023-01-13T11:06:47.941Z,97262.63
2023-01-13T11:08:55.148Z,97274.41
2023-01-13T11:11:00.514Z,97270.34
2023-01-13T11:13:08.589Z,97270.69
2023-01-13T11:15:18.559Z,97278.00
2023-01-13T11:17:32.158Z,97270.53
2023-01-13T11:19:38.065Z,97266.66
2023-01-13T11:21:49.818Z,97268.13
2023-01-13T11:24:05.063Z,97274.22
2023-01-13T11:26:14.360Z,97278.50
2023-01-13T11:28:28.840Z,97268.13
2023-01-13T11:30:39.204Z,97271.16
2023-01-13T11:32:53.545Z,97267.06
2023-01-13T11:35:01.436Z,97256.69
2023-01-13T11:37:11.505Z,97261.81
2023-01-13T11:39:25.021Z,97255.69
2023-01-13T11:41:44.093Z,97262.25
2023-01-13T11:43:52.289Z,97274.34
2023-01-13T11:45:58.672Z,97263.88
2023-01-13T11:48:03.413Z,97280.47
2023-01-13T11:50:17.580Z,97274.34
2023-01-13T11:52:25.156Z,97269.16
2023-01-13T11:54:49.110Z,97270.03
2023-01-13T11:57:25.278Z,97264.56
2023-01-13T11:59:58.472Z,97268.06
2023-01-13T12:02:20.385Z,97266.94
2023-01-13T12:04:29.121Z,97269.22
2023-01-13T12:06:35.983Z,97281.44
2023-01-13T12:08:55.840Z,97282.44
2023-01-13T12:11:12.299Z,97292.44
2023-01-13T12:13:26.801Z,97286.75
2023-01-13T12:15:50.174Z,97284.09
2023-01-13T12:18:07.435Z,97284.94
2023-01-13T12:20:21.256Z,97274.91
2023-01-13T12:22:27.712Z,97278.56
2023-01-13T12:24:35.494Z,97288.53
2023-01-13T12:26:44.836Z,97286.50
2023-01-13T12:28:52.231Z,97285.50
2023-01-13T12:31:00.195Z,97285.09
2023-01-13T12:33:18.756Z,97280.63
2023-01-13T12:35:37.700Z,97286.75
2023-01-13T12:37:48.552Z,97282.91
2023-01-13T12:40:03.004Z,97293.06
2023-01-13T12:42:34.234Z,97298.00
2023-01-13T12:44:36.947Z,97297.59
2023-01-13T12:46:55.939Z,97297.22
2023-01-13T12:49:09.778Z,97294.84
2023-01-13T12:51:23.351Z,97291.59
2023-01-13T12:53:31.892Z,97292.69
2023-01-13T12:55:36.853Z,97273.75
2023-01-13T12:57:41.212Z,97278.25
2023-01-13T12:59:49.919Z,97278.31
2023-01-13T13:02:15.674Z,97282.84
2023-01-13T13:04:21.697Z,97286.50
2023-01-13T13:06:30.346Z,97269.97
2023-01-13T13:08:54.383Z,97269.78
2023-01-13T13:11:03.027Z,97273.91
2023-01-13T13:13:19.949Z,97273.06
2023-01-13T13:15:24.528Z,97273.25
2023-01-13T13:17:46.799Z,97282.03
2023-01-13T13:19:50.924Z,97279.38
2023-01-13T13:22:19.897Z,97291.00
2023-01-13T13:24:22.789Z,97288.34
2023-01-13T13:26:40.229Z,97289.00
2023-01-13T13:28:49.915Z,97293.28
2023-01-13T13:31:22.503Z,97287.78
2023-01-13T13:33:45.179Z,97285.75
2023-01-13T13:36:02.701Z,97281.66
2023-01-13T13:38:40.039Z,97292.47
2023-01-13T13:41:03.645Z,97295.72
2023-01-13T13:43:29.676Z,97292.25
2023-01-13T13:45:50.106Z,97291.66
2023-01-13T13:47:52.915Z,97293.50
2023-01-13T13:49:56.584Z,97303.72
2023-01-13T13:52:05.339Z,97307.03
2023-01-13T13:54:11.556Z,97303.72
2023-01-13T13:56:20.438Z,97304.94
2023-01-13T13:58:23.855Z,97305.13
2023-01-13T14:00:30.164Z,97308.53
2023-01-13T14:02:38.037Z,97308.72
2023-01-13T14:04:41.515Z,97299.13
2023-01-13T14:06:51.861Z,97323.63
2023-01-13T14:08:55.811Z,97322.19
2023-01-13T14:10:58.689Z,97317.91
2023-01-13T14:13:03.905Z,97322.19
2023-01-13T14:15:07.317Z,97328.94
2023-01-13T14:17:21.012Z,97325.47
2023-01-13T14:19:30.255Z,97328.09
2023-01-13T14:21:32.925Z,97312.34
2023-01-13T14:23:35.762Z,97309.25
2023-01-13T14:25:47.995Z,97301.50
2023-01-13T14:27:50.941Z,97306.75
2023-01-13T14:29:54.805Z,97303.66
2023-01-13T14:31:58.674Z,97302.00
2023-01-13T14:34:32.084Z,97300.38
2023-01-13T14:36:38.064Z,97303.03
2023-01-13T14:38:40.953Z,97301.56
2023-01-13T14:40:46.816Z,97307.06
2023-01-13T14:43:00.175Z,97325.81
2023-01-13T14:45:03.375Z,97331.94
2023-01-13T14:47:20.715Z,97327.66
2023-01-13T14:49:28.198Z,97335.22
2023-01-13T14:51:31.980Z,97338.09
2023-01-13T14:53:40.161Z,97332.25
2023-01-13T14:55:42.876Z,97336.34
2023-01-13T14:57:47.013Z,97341.25
2023-01-13T14:59:57.413Z,97343.91
2023-01-13T15:02:00.599Z,97350.84
2023-01-13T15:04:25.574Z,97352.50
2023-01-13T15:06:28.335Z,97357.78
2023-01-13T15:08:36.881Z,97359.44
2023-01-13T15:10:48.159Z,97359.44
2023-01-13T15:12:54.058Z,97370.03
2023-01-13T15:14:57.320Z,97371.69
2023-01-13T15:17:00.067Z,97361.91
2023-01-13T15:19:03.340Z,97366.22
2023-01-13T15:21:06.449Z,97371.50
2023-01-13T15:23:09.307Z,97371.50
2023-01-13T15:25:15.220Z,97380.28
2023-01-13T15:27:21.288Z,97377.63
2023-01-13T15:29:25.321Z,97385.94
2023-01-13T15:31:29.630Z,97386.31
2023-01-13T15:33:32.324Z,97405.47
2023-01-13T15:35:35.396Z,97397.25
2023-01-13T15:37:38.444Z,97405.38
2023-01-13T15:39:40.956Z,97407.41
2023-01-13T15:42:01.354Z,97414.34
2023-01-13T15:44:21.844Z,97413.34
2023-01-13T15:46:41.312Z,97418.91
2023-01-13T15:48:43.951Z,97433.34
2023-01-13T15:50:48.093Z,97432.72
2023-01-13T15:52:51.094Z,97417.28
2023-01-13T15:54:54.855Z,97423.41
2023-01-13T15:56:57.787Z,97426.88
2023-01-13T15:59:00.628Z,97431.16
2023-01-13T16:01:03.308Z,97435.63
2023-01-13T16:03:07.618Z,97431.50
2023-01-13T16:05:10.841Z,97436.00
2023-01-13T16:07:17.243Z,97433.53
2023-01-13T16:09:19.940Z,97435.16
2023-01-13T16:11:22.671Z,97431.88
2023-01-13T16:13:25.291Z,97433.34
2023-01-13T16:15:28.076Z,97442.78
2023-01-13T16:17:34.270Z,97440.13
2023-01-13T16:19:38.235Z,97441.75
2023-01-13T16:21:41.166Z,97441.75
2023-01-13T16:23:44.095Z,97445.41
2023-01-13T16:25:47.669Z,97447.88
2023-01-13T16:27:50.932Z,97451.34
2023-01-13T16:29:54.073Z,97447.69
2023-01-13T16:31:56.716Z,97451.16
2023-01-13T16:34:00.229Z,97454.63
2023-01-13T16:36:12.599Z,97458.09
2023-01-13T16:38:16.523Z,97467.88
2023-01-13T16:40:24.038Z,97470.53
2023-01-13T16:42:26.730Z,97467.88
2023-01-13T16:44:29.340Z,97474.19
2023-01-13T16:46:33.343Z,97474.19
2023-01-13T16:48:36.046Z,97480.50
2023-01-13T16:50:40.903Z,97483.34
2023-01-13T16:52:44.915Z,97492.94
2023-01-13T16:54:47.874Z,97496.41
2023-01-13T16:56:50.524Z,97502.09
2023-01-13T16:58:54.716Z,97517.00
2023-01-13T17:00:57.416Z,97527.41
2023-01-13T17:03:01.901Z,97530.50
2023-01-13T17:05:04.776Z,97534.97
2023-01-13T17:07:10.344Z,97531.50
2023-01-13T17:09:18.110Z,97536.81
2023-01-13T17:11:21.609Z,97541.09
2023-01-13T17:13:24.442Z,97536.81
2023-01-13T17:15:27.238Z,97548.63
2023-01-13T17:17:29.986Z,97546.97
2023-01-13T17:19:32.792Z,97546.16
2023-01-13T17:21:35.413Z,97548.44
2023-01-13T17:23:38.087Z,97541.28
2023-01-13T17:25:42.087Z,97550.25
2023-01-13T17:27:44.728Z,97547.59
2023-01-13T17:29:47.552Z,97545.78
2023-01-13T17:31:50.351Z,97563.31
2023-01-13T17:33:53.070Z,97554.94
2023-01-13T17:35:55.740Z,97556.28
2023-01-13T17:37:58.488Z,97559.13
2023-01-13T17:40:01.879Z,97562.97
2023-01-13T17:42:06.085Z,97559.50
2023-01-13T17:44:08.807Z,97555.22
2023-01-13T17:46:12.454Z,97548.09
2023-01-13T17:48:15.184Z,97550.72
2023-01-13T17:50:18.019Z,97550.91
2023-01-13T17:52:21.359Z,97548.28
2023-01-13T17:54:24.296Z,97549.28
2023-01-13T17:56:27.079Z,97553.91
2023-01-13T17:58:31.184Z,97559.59
2023-01-13T18:00:34.504Z,97554.03
2023-01-13T18:02:37.227Z,97560.97
2023-01-13T18:04:40.169Z,97543.16
2023-01-13T18:06:43.015Z,97564.97
2023-01-13T18:08:46.576Z,97557.22
2023-01-13T18:10:52.887Z,97565.34
2023-01-13T18:12:56.147Z,97582.25
2023-01-13T18:15:00.460Z,97567.19
2023-01-13T18:17:03.270Z,97569.19
2023-01-13T18:19:23.641Z,97583.97
2023-01-13T18:21:44.933Z,97577.78
2023-01-13T18:24:05.214Z,97585.41
2023-01-13T18:26:34.264Z,97594.53
2023-01-13T18:28:37.048Z,97593.09
2023-01-13T18:30:41.235Z,97593.44
2023-01-13T18:32:43.929Z,97593.63
2023-01-13T18:34:47.919Z,97606.88
2023-01-13T18:36:50.618Z,97607.53
2023-01-13T18:38:53.472Z,97606.69
2023-01-13T18:40:56.139Z,97608.97
2023-01-13T18:42:59.146Z,97607.97
2023-01-13T18:45:02.006Z,97610.25
2023-01-13T18:47:06.113Z,97616.88
2023-01-13T18:49:08.784Z,97602.06
2023-01-13T18:51:11.654Z,97610.47
2023-01-13T18:53:14.345Z,97617.06
2023-01-13T18:55:17.589Z,97617.72
2023-01-13T18:57:21.384Z,97628.56
2023-01-13T18:59:25.944Z,97634.34
2023-01-13T19:01:29.899Z,97633.16
2023-01-13T19:03:34.028Z,97645.41
2023-01-13T19:05:38.240Z,97645.22
2023-01-13T19:07:43.112Z,97645.84
2023-01-13T19:09:45.724Z,97651.00
2023-01-13T19:11:48.397Z,97651.63
2023-01-13T19:13:51.908Z,97649.19
2023-01-13T19:15:54.562Z,97657.94
2023-01-13T19:17:57.297Z,97657.94
2023-01-13T19:20:01.702Z,97662.59
2023-01-13T19:22:04.420Z,97669.56
2023-01-13T19:24:07.595Z,97666.53
2023-01-13T19:26:12.127Z,97666.53
2023-01-13T19:28:15.384Z,97671.66
2023-01-13T19:30:18.417Z,97658.22
2023-01-13T19:32:22.431Z,97657.41
2023-01-13T19:34:25.437Z,97662.50
2023-01-13T19:36:29.544Z,97665.97
2023-01-13T19:38:32.663Z,97677.78
2023-01-13T19:40:35.476Z,97686.44
2023-01-13T19:42:54.754Z,97695.13
2023-01-13T19:45:15.099Z,97712.56
2023-01-13T19:47:18.271Z,97710.91
2023-01-13T19:49:20.924Z,97711.72
2023-01-13T19:51:23.543Z,97718.22
2023-01-13T19:53:28.048Z,97707.63
2023-01-13T19:55:31.721Z,97699.84
2023-01-13T19:57:34.607Z,97703.88
2023-01-13T19:59:40.857Z,97700.94
2023-01-13T20:01:43.787Z,97710.88
2023-01-13T20:03:46.995Z,97706.97
2023-01-13T20:05:49.614Z,97713.38
2023-01-13T20:07:52.679Z,97710.72
2023-01-13T20:09:57.346Z,97712.56
2023-01-13T20:12:00.780Z,97712.56
2023-01-13T20:14:03.787Z,97714.38
2023-01-13T20:16:06.839Z,97704.97
2023-01-13T20:18:10.400Z,97697.03
2023-01-13T20:20:14.892Z,97691.72
2023-01-13T20:22:17.514Z,97693.56
2023-01-13T20:24:20.342Z,97698.03
2023-01-13T20:26:24.405Z,97693.75
2023-01-13T20:28:27.984Z,97695.75
2023-01-13T20:30:30.626Z,97689.63
2023-01-13T20:32:33.267Z,97695.75
2023-01-13T20:34:36.034Z,97695.75
2023-01-13T20:36:43.209Z,97701.03
2023-01-13T20:38:45.938Z,97700.22
2023-01-13T20:40:48.712Z,97714.94
2023-01-13T20:42:52.586Z,97709.63
2023-01-13T20:44:55.265Z,97717.56
2023-01-13T20:46:59.005Z,97724.06
2023-01-13T20:49:01.676Z,97719.41
2023-01-13T20:51:04.778Z,97717.41
2023-01-13T20:53:07.434Z,97712.91
2023-01-13T20:55:11.032Z,97721.19
2023-01-13T20:57:13.763Z,97712.25
2023-01-13T20:59:18.982Z,97720.19
2023-01-13T21:01:21.784Z,97721.19
2023-01-13T21:03:24.442Z,97719.50
2023-01-13T21:05:28.251Z,97730.94
2023-01-13T21:07:30.978Z,97723.69
2023-01-13T21:09:33.655Z,97730.81
2023-01-13T21:11:54.203Z,97727.16
2023-01-13T21:14:14.718Z,97726.78
2023-01-13T21:16:18.819Z,97733.09
2023-01-13T21:18:39.216Z,97728.97
2023-01-13T21:20:41.970Z,97727.31
2023-01-13T21:22:46.361Z,97724.81
2023-01-13T21:24:49.060Z,97725.16
2023-01-13T21:26:54.527Z,97727.16
2023-01-13T21:28:58.492Z,97716.56
2023-01-13T21:31:03.324Z,97716.56
2023-01-13T21:33:07.440Z,97716.56
2023-01-13T21:35:10.560Z,97720.88
2023-01-13T21:37:14.748Z,97713.56
2023-01-13T21:39:17.482Z,97712.75
2023-01-13T21:41:41.004Z,97723.53
2023-01-13T21:44:01.324Z,97723.06
2023-01-13T21:46:33.336Z,97722.88
2023-01-13T21:48:37.344Z,97714.94
2023-01-13T21:50:40.313Z,97711.28
2023-01-13T21:52:43.493Z,97712.91
2023-01-13T21:55:03.729Z,97718.41
2023-01-13T21:57:06.404Z,97725.16
2023-01-13T21:59:09.237Z,97725.97
2023-01-13T22:01:12.256Z,97719.50
2023-01-13T22:03:15.413Z,97722.16
2023-01-13T22:05:21.435Z,97726.81
2023-01-13T22:07:24.214Z,97731.28
2023-01-13T22:09:27.396Z,97728.19
2023-01-13T22:11:31.681Z,97733.47
2023-01-13T22:13:52.056Z,97734.13
2023-01-13T22:15:55.732Z,97737.75
2023-01-13T22:17:59.331Z,97733.47
2023-01-13T22:20:02.455Z,97744.72
2023-01-13T22:22:10.147Z,97745.06
2023-01-13T22:24:13.062Z,97747.72
2023-01-13T22:26:15.751Z,97746.25
2023-01-13T22:28:23.989Z,97745.44
2023-01-13T22:30:31.691Z,97741.78
2023-01-13T22:32:36.503Z,97732.84
2023-01-13T22:34:39.296Z,97736.47
2023-01-13T22:36:41.989Z,97746.25
2023-01-13T22:38:46.372Z,97740.47
2023-01-13T22:40:56.958Z,97738.19
2023-01-13T22:42:59.725Z,97740.19
2023-01-13T22:45:02.416Z,97747.13
2023-01-13T22:47:07.612Z,97745.47
2023-01-13T22:49:12.247Z,97740.38
2023-01-13T22:51:16.570Z,97737.22
2023-01-13T22:53:19.857Z,97740.88
2023-01-13T22:55:23.848Z,97737.41
2023-01-13T22:57:26.633Z,97736.59
2023-01-13T22:59:29.322Z,97733.28
2023-01-13T23:01:33.874Z,97732.66
2023-01-13T23:03:36.920Z,97733.47
2023-01-13T23:05:43.408Z,97732.81
2023-01-13T23:07:46.388Z,97731.00
2023-01-13T23:09:49.052Z,97734.47
2023-01-13T23:11:53.678Z,97733.66
2023-01-13T23:14:00.848Z,97731.66
2023-01-13T23:16:04.569Z,97729.81
2023-01-13T23:18:08.253Z,97730.00
2023-01-13T23:20:12.248Z,97727.34
2023-01-13T23:22:15.570Z,97731.66
2023-01-13T23:24:18.284Z,97723.69
2023-01-13T23:26:23.444Z,97719.41
2023-01-13T23:28:27.568Z,97715.13
2023-01-13T23:30:30.200Z,97709.81
2023-01-13T23:32:33.291Z,97707.34
2023-01-13T23:34:35.919Z,97704.88
2023-01-13T23:36:41.031Z,97709.50
2023-01-13T23:38:43.977Z,97708.88
2023-01-13T23:40:46.819Z,97712.50
2023-01-13T23:42:49.631Z,97709.22
2023-01-13T23:44:53.708Z,97704.94
2023-01-13T23:46:56.362Z,97704.94
2023-01-13T23:48:59.059Z,97694.34
2023-01-13T23:51:03.868Z,97692.69
2023-01-13T23:53:06.746Z,97704.44
2023-01-13T23:55:11.449Z,97694.84
2023-01-13T23:57:14.231Z,97698.50
2023-01-13T23:59:17.159Z,97694.22
